createdAt,value
2022-11-05T00:02:28.320Z,6.68
2022-11-05T00:05:14.179Z,6.73
2022-11-05T00:08:11.643Z,6.66
2022-11-05T00:10:39.411Z,6.67
2022-11-05T00:13:27.814Z,6.66
2022-11-05T00:16:19.325Z,6.69
2022-11-05T00:19:06.709Z,6.70
2022-11-05T00:21:53.245Z,6.70
2022-11-05T00:24:39.611Z,6.71
2022-11-05T00:27:07.958Z,6.68
2022-11-05T00:29:36.824Z,6.69
2022-11-05T00:32:04.277Z,6.70
2022-11-05T00:34:31.616Z,6.73
2022-11-05T00:36:59.218Z,6.74
2022-11-05T00:39:26.732Z,6.72
2022-11-05T00:42:12.791Z,6.73
2022-11-05T00:44:58.891Z,6.71
2022-11-05T00:47:44.922Z,6.74
2022-11-05T00:50:12.917Z,6.73
2022-11-05T00:52:58.869Z,6.71
2022-11-05T00:55:39.472Z,6.74
2022-11-05T00:58:09.957Z,6.74
2022-11-05T01:00:40.130Z,6.76
2022-11-05T01:03:11.205Z,6.76
2022-11-05T01:05:41.625Z,6.77
2022-11-05T01:08:10.022Z,6.77
2022-11-05T01:10:46.441Z,6.77
2022-11-05T01:13:17.497Z,6.78
2022-11-05T01:15:45.912Z,6.76
2022-11-05T01:18:14.412Z,6.79
2022-11-05T01:20:42.013Z,6.80
2022-11-05T01:23:13.546Z,6.77
2022-11-05T01:25:43.836Z,6.76
2022-11-05T01:28:11.678Z,6.76
2022-11-05T01:30:39.310Z,6.78
2022-11-05T01:33:07.410Z,6.75
2022-11-05T01:35:35.002Z,6.75
2022-11-05T01:38:02.489Z,6.77
2022-11-05T01:40:30.033Z,6.73
2022-11-05T01:42:57.642Z,6.74
2022-11-05T01:45:28.211Z,6.72
2022-11-05T01:48:01.627Z,6.73
2022-11-05T01:50:37.598Z,6.70
2022-11-05T01:53:13.455Z,6.69
2022-11-05T01:56:16.608Z,6.72
2022-11-05T01:58:50.378Z,6.70
2022-11-05T02:01:21.407Z,6.71
2022-11-05T02:03:53.334Z,6.71
2022-11-05T02:06:21.816Z,6.72
2022-11-05T02:09:20.422Z,6.70
2022-11-05T02:11:48.609Z,6.71
2022-11-05T02:14:16.229Z,6.72
2022-11-05T02:17:05.130Z,6.72
2022-11-05T02:20:06.636Z,6.76
2022-11-05T02:22:37.082Z,6.73
2022-11-05T02:25:35.815Z,6.73
2022-11-05T02:28:48.211Z,6.75
2022-11-05T02:31:40.868Z,6.74
2022-11-05T02:34:33.315Z,6.75
2022-11-05T02:37:00.635Z,6.74
2022-11-05T02:39:38.815Z,6.74
2022-11-05T02:42:18.401Z,6.75
2022-11-05T02:45:30.636Z,6.74
2022-11-05T02:48:25.522Z,6.76
2022-11-05T02:51:03.568Z,6.74
2022-11-05T02:53:37.084Z,6.73
2022-11-05T02:56:36.912Z,6.73
2022-11-05T02:59:04.534Z,6.72
2022-11-05T03:01:32.101Z,6.73
2022-11-05T03:04:03.749Z,6.73
2022-11-05T03:07:12.502Z,6.72
2022-11-05T03:09:49.121Z,6.71
2022-11-05T03:12:29.459Z,6.73
2022-11-05T03:15:05.072Z,6.74
2022-11-05T03:18:10.135Z,6.74
2022-11-05T03:20:53.924Z,6.78
2022-11-05T03:23:27.554Z,6.79
2022-11-05T03:26:12.757Z,6.78
2022-11-05T03:28:43.479Z,6.74
2022-11-05T03:31:14.844Z,6.77
2022-11-05T03:33:44.759Z,6.75
2022-11-05T03:36:19.420Z,6.74
2022-11-05T03:38:50.568Z,6.74
2022-11-05T03:41:20.947Z,6.74
2022-11-05T03:43:52.455Z,6.75
2022-11-05T03:46:38.796Z,6.75
2022-11-05T03:49:11.388Z,6.74
2022-11-05T03:51:46.305Z,6.71
2022-11-05T03:54:14.539Z,6.72
2022-11-05T03:56:51.672Z,6.71
2022-11-05T03:59:20.667Z,6.69
2022-11-05T04:01:49.670Z,6.71
2022-11-05T04:04:17.520Z,6.72
2022-11-05T04:07:03.455Z,6.74
2022-11-05T04:09:49.413Z,6.71
2022-11-05T04:12:35.770Z,6.72
2022-11-05T04:15:03.829Z,6.69
2022-11-05T04:17:31.560Z,6.69
2022-11-05T04:20:17.666Z,6.66
2022-11-05T04:23:03.799Z,6.67
2022-11-05T04:25:31.337Z,6.70
2022-11-05T04:28:00.713Z,6.73
2022-11-05T04:30:28.254Z,6.69
2022-11-05T04:33:00.867Z,6.68
2022-11-05T04:35:36.943Z,6.70
2022-11-05T04:38:06.665Z,6.63
2022-11-05T04:40:34.489Z,6.63
2022-11-05T04:43:02.484Z,6.61
2022-11-05T04:45:31.470Z,6.63
2022-11-05T04:47:59.163Z,6.60
2022-11-05T04:50:26.700Z,6.64
2022-11-05T04:56:12.834Z,6.59
2022-11-05T04:58:42.226Z,6.61
2022-11-05T05:01:15.039Z,6.63
2022-11-05T05:03:43.005Z,6.64
2022-11-05T05:06:10.477Z,6.64
2022-11-05T05:08:37.939Z,6.62
2022-11-05T05:11:07.284Z,6.58
2022-11-05T05:13:34.845Z,6.54
2022-11-05T05:16:11.474Z,6.51
2022-11-05T05:18:45.050Z,6.48
2022-11-05T05:21:33.055Z,6.48
2022-11-05T05:24:00.763Z,6.46
2022-11-05T05:26:28.678Z,6.39
2022-11-05T05:28:56.239Z,6.36
2022-11-05T05:31:24.194Z,6.34
2022-11-05T05:33:55.039Z,6.32
2022-11-05T05:36:23.414Z,6.34
2022-11-05T05:38:51.132Z,6.32
2022-11-05T05:41:18.941Z,6.35
2022-11-05T05:43:47.639Z,6.34
2022-11-05T05:46:16.999Z,6.38
2022-11-05T05:48:49.117Z,6.37
2022-11-05T05:51:19.236Z,6.40
2022-11-05T05:53:47.301Z,6.39
2022-11-05T05:56:19.219Z,6.37
2022-11-05T05:58:47.529Z,6.40
2022-11-05T06:01:22.172Z,6.37
2022-11-05T06:03:49.659Z,6.39
2022-11-05T06:06:21.415Z,6.44
2022-11-05T06:08:49.045Z,6.45
2022-11-05T06:11:16.632Z,6.42
2022-11-05T06:13:44.232Z,6.42
2022-11-05T06:16:11.718Z,6.38
2022-11-05T06:18:39.874Z,6.36
2022-11-05T06:21:13.764Z,6.38
2022-11-05T06:23:45.436Z,6.37
2022-11-05T06:26:15.548Z,6.34
2022-11-05T06:28:43.431Z,6.34
2022-11-05T06:31:11.681Z,6.33
2022-11-05T06:33:40.313Z,6.35
2022-11-05T06:36:16.292Z,6.37
2022-11-05T06:38:43.985Z,6.41
2022-11-05T06:41:13.168Z,6.38
2022-11-05T06:43:41.745Z,6.44
2022-11-05T06:46:11.324Z,6.40
2022-11-05T06:48:39.220Z,6.46
2022-11-05T06:51:08.143Z,6.49
2022-11-05T06:53:36.186Z,6.50
2022-11-05T06:56:06.025Z,6.49
2022-11-05T06:58:34.275Z,6.59
2022-11-05T07:01:04.470Z,6.56
2022-11-05T07:03:32.036Z,6.62
2022-11-05T07:06:01.014Z,6.60
2022-11-05T07:08:33.433Z,6.63
2022-11-05T07:11:23.054Z,6.62
2022-11-05T07:13:50.464Z,6.69
2022-11-05T07:16:18.035Z,6.72
2022-11-05T07:18:45.778Z,6.71
2022-11-05T07:21:13.285Z,6.79
2022-11-05T07:23:40.769Z,6.81
2022-11-05T07:26:08.235Z,6.79
2022-11-05T07:28:35.807Z,6.80
2022-11-05T07:31:04.318Z,6.82
2022-11-05T07:33:36.311Z,6.85
2022-11-05T07:36:04.429Z,6.82
2022-11-05T07:38:31.973Z,6.80
2022-11-05T07:41:00.796Z,6.83
2022-11-05T07:43:28.344Z,6.81
2022-11-05T07:46:07.598Z,6.81
2022-11-05T07:48:39.128Z,6.93
2022-11-05T07:51:06.592Z,6.92
2022-11-05T07:53:35.250Z,6.84
2022-11-05T07:56:02.895Z,6.84
2022-11-05T07:58:30.755Z,6.80
2022-11-05T08:00:58.397Z,6.87
2022-11-05T08:03:26.039Z,7.06
2022-11-05T08:05:53.887Z,7.00
2022-11-05T08:08:21.511Z,7.03
2022-11-05T08:10:48.982Z,7.18
2022-11-05T08:13:17.143Z,7.31
2022-11-05T08:15:46.405Z,7.28
2022-11-05T08:18:16.648Z,7.36
2022-11-05T08:20:45.949Z,7.29
2022-11-05T08:23:14.516Z,7.38
2022-11-05T08:25:42.499Z,7.35
2022-11-05T08:28:13.852Z,7.32
2022-11-05T08:30:41.617Z,7.36
2022-11-05T08:33:11.814Z,7.28
2022-11-05T08:35:40.050Z,7.34
2022-11-05T08:38:08.427Z,7.47
2022-11-05T08:40:37.290Z,7.77
2022-11-05T08:43:07.306Z,7.96
2022-11-05T08:45:38.267Z,8.04
2022-11-05T08:48:09.563Z,8.09
2022-11-05T08:50:37.704Z,7.97
2022-11-05T08:53:06.801Z,7.80
2022-11-05T08:55:34.584Z,7.76
2022-11-05T08:58:04.734Z,7.81
2022-11-05T09:00:36.848Z,7.93
2022-11-05T09:03:07.502Z,8.15
2022-11-05T09:05:39.846Z,8.18
2022-11-05T09:08:17.460Z,7.97
2022-11-05T09:10:47.016Z,7.88
2022-11-05T09:13:18.891Z,7.87
2022-11-05T09:15:50.743Z,8.46
2022-11-05T09:18:19.537Z,8.65
2022-11-05T09:20:47.974Z,8.27
2022-11-05T09:23:15.912Z,8.23
2022-11-05T09:25:43.810Z,8.24
2022-11-05T09:28:17.816Z,8.30
2022-11-05T09:30:53.098Z,8.49
2022-11-05T09:33:23.618Z,8.56
2022-11-05T09:36:08.534Z,8.56
2022-11-05T09:38:36.384Z,8.53
2022-11-05T09:41:30.949Z,8.86
2022-11-05T09:44:06.204Z,9.14
2022-11-05T09:46:45.638Z,9.15
2022-11-05T09:49:25.185Z,9.14
2022-11-05T09:51:55.971Z,9.35
2022-11-05T09:54:26.221Z,9.53
2022-11-05T09:56:55.367Z,9.74
2022-11-05T09:59:46.328Z,9.77
2022-11-05T10:02:55.786Z,9.76
2022-11-05T10:05:25.651Z,9.74
2022-11-05T10:08:05.046Z,9.48
2022-11-05T10:10:43.399Z,9.49
2022-11-05T10:13:20.049Z,9.95
2022-11-05T10:16:08.294Z,9.83
2022-11-05T10:18:43.100Z,9.73
2022-11-05T10:21:37.688Z,10.01
2022-11-05T10:24:15.171Z,9.84
2022-11-05T10:26:46.586Z,10.39
2022-11-05T10:29:21.763Z,10.88
2022-11-05T10:31:49.756Z,10.87
2022-11-05T10:34:18.076Z,10.86
2022-11-05T10:37:11.111Z,11.27
2022-11-05T10:39:38.893Z,11.03
2022-11-05T10:42:37.521Z,11.36
2022-11-05T10:45:17.719Z,11.23
2022-11-05T10:48:05.762Z,11.14
2022-11-05T10:50:34.394Z,10.81
2022-11-05T10:53:11.137Z,10.66
2022-11-05T10:55:43.607Z,10.58
2022-11-05T10:58:17.517Z,10.64
2022-11-05T11:01:06.798Z,10.34
2022-11-05T11:03:34.800Z,10.43
2022-11-05T11:06:22.848Z,10.54
2022-11-05T11:08:52.607Z,10.92
2022-11-05T11:12:11.973Z,10.78
2022-11-05T11:14:40.408Z,10.32
2022-11-05T11:17:41.714Z,10.19
2022-11-05T11:20:18.825Z,10.55
2022-11-05T11:23:16.116Z,10.66
2022-11-05T11:25:57.941Z,10.22
2022-11-05T11:28:35.011Z,9.91
2022-11-05T11:31:14.217Z,9.99
2022-11-05T11:33:45.904Z,9.85
2022-11-05T11:36:16.855Z,9.50
2022-11-05T11:38:44.814Z,9.45
2022-11-05T11:41:21.681Z,9.80
2022-11-05T11:43:52.989Z,10.18
2022-11-05T11:46:21.478Z,10.60
2022-11-05T11:48:49.790Z,10.91
2022-11-05T11:51:32.834Z,10.94
2022-11-05T11:54:01.529Z,11.13
2022-11-05T11:56:30.501Z,11.40
2022-11-05T12:00:06.686Z,11.44
2022-11-05T12:02:52.606Z,11.31
2022-11-05T12:05:35.165Z,11.38
2022-11-05T12:08:44.341Z,11.16
2022-11-05T12:11:41.973Z,10.72
2022-11-05T12:14:09.534Z,10.37
2022-11-05T12:16:54.961Z,9.98
2022-11-05T12:19:31.641Z,9.67
2022-11-05T12:22:14.536Z,9.41
2022-11-05T12:24:51.144Z,9.19
2022-11-05T12:27:54.221Z,9.04
2022-11-05T12:30:23.508Z,8.96
2022-11-05T12:33:20.256Z,8.92
2022-11-05T12:36:13.456Z,8.95
2022-11-05T12:39:06.249Z,8.99
2022-11-05T12:41:38.951Z,8.96
2022-11-05T12:44:27.806Z,8.88
2022-11-05T12:47:14.200Z,8.87
2022-11-05T12:49:57.888Z,9.01
2022-11-05T12:52:25.828Z,9.03
2022-11-05T12:55:04.219Z,8.97
2022-11-05T12:57:36.814Z,9.04
2022-11-05T13:00:16.756Z,9.32
2022-11-05T13:03:36.990Z,9.51
2022-11-05T13:06:17.657Z,9.54
2022-11-05T13:09:00.287Z,9.57
2022-11-05T13:11:54.571Z,9.79
2022-11-05T13:14:35.378Z,9.93
2022-11-05T13:17:24.745Z,9.71
2022-11-05T13:20:26.736Z,9.70
2022-11-05T13:23:06.993Z,9.72
2022-11-05T13:25:41.966Z,9.79
2022-11-05T13:28:51.248Z,9.70
2022-11-05T13:31:35.361Z,9.67
2022-11-05T13:34:10.753Z,9.51
2022-11-05T13:37:06.094Z,9.40
2022-11-05T13:39:44.885Z,9.29
2022-11-05T13:42:37.440Z,9.31
2022-11-05T13:45:39.492Z,9.14
2022-11-05T13:48:25.688Z,9.03
2022-11-05T13:51:11.729Z,8.83
2022-11-05T13:53:57.508Z,8.75
2022-11-05T13:56:49.899Z,8.56
2022-11-05T13:59:35.898Z,8.40
2022-11-05T14:02:26.717Z,8.31
2022-11-05T14:05:01.514Z,8.26
2022-11-05T14:07:32.549Z,8.25
2022-11-05T14:10:10.743Z,8.09
2022-11-05T14:12:40.372Z,7.99
2022-11-05T14:15:23.741Z,7.98
2022-11-05T14:18:02.209Z,7.94
2022-11-05T14:20:32.769Z,8.03
2022-11-05T14:23:25.419Z,8.13
2022-11-05T14:26:25.644Z,8.31
2022-11-05T14:29:05.546Z,8.44
2022-11-05T14:32:08.343Z,8.46
2022-11-05T14:34:47.408Z,8.51
2022-11-05T14:37:22.347Z,8.49
2022-11-05T14:39:50.410Z,8.47
2022-11-05T14:42:27.238Z,8.46
2022-11-05T14:44:59.667Z,8.56
2022-11-05T14:47:32.749Z,8.47
2022-11-05T14:50:18.363Z,8.46
2022-11-05T14:52:57.792Z,8.36
2022-11-05T14:55:31.536Z,8.26
2022-11-05T14:57:59.415Z,8.31
2022-11-05T15:00:29.977Z,8.19
2022-11-05T15:03:23.098Z,8.09
2022-11-05T15:05:53.408Z,8.04
2022-11-05T15:08:26.798Z,7.95
2022-11-05T15:13:58.545Z,7.76
2022-11-05T15:16:33.059Z,7.71
2022-11-05T15:19:00.812Z,7.64
2022-11-05T15:21:32.340Z,7.59
2022-11-05T15:24:02.460Z,7.51
2022-11-05T15:27:11.067Z,7.49
2022-11-05T15:29:38.832Z,7.43
2022-11-05T15:32:14.609Z,7.38
2022-11-05T15:34:51.504Z,7.36
2022-11-05T15:37:24.097Z,7.47
2022-11-05T15:39:53.780Z,7.51
2022-11-05T15:42:23.789Z,7.48
2022-11-05T15:44:59.637Z,7.45
2022-11-05T15:47:32.237Z,7.47
2022-11-05T15:50:02.508Z,7.37
2022-11-05T15:52:42.331Z,7.35
2022-11-05T15:55:13.135Z,7.34
2022-11-05T15:57:57.094Z,7.28
2022-11-05T16:00:27.364Z,7.17
2022-11-05T16:03:01.780Z,7.19
2022-11-05T16:05:33.673Z,7.15
2022-11-05T16:08:04.392Z,7.07
2022-11-05T16:10:35.188Z,7.06
2022-11-05T16:13:38.551Z,6.96
2022-11-05T16:16:13.641Z,6.86
2022-11-05T16:18:42.791Z,6.87
2022-11-05T16:21:19.075Z,6.89
2022-11-05T16:23:55.120Z,6.96
2022-11-05T16:27:00.704Z,6.89
2022-11-05T16:29:23.732Z,6.84
2022-11-05T16:31:56.510Z,6.80
2022-11-05T16:34:36.665Z,6.77
2022-11-05T16:37:06.100Z,6.71
2022-11-05T16:39:34.334Z,6.58
2022-11-05T16:42:01.934Z,6.57
2022-11-05T16:44:29.498Z,6.67
2022-11-05T16:46:58.444Z,6.55
2022-11-05T16:49:25.959Z,6.48
2022-11-05T16:51:53.513Z,6.44
2022-11-05T16:54:21.122Z,6.47
2022-11-05T16:56:48.632Z,6.40
2022-11-05T16:59:16.091Z,6.38
2022-11-05T17:01:44.379Z,6.30
2022-11-05T17:04:13.557Z,6.25
2022-11-05T17:06:41.014Z,6.26
2022-11-05T17:09:08.384Z,6.27
2022-11-05T17:11:36.012Z,6.37
2022-11-05T17:14:03.699Z,6.30
2022-11-05T17:16:32.405Z,6.17
2022-11-05T17:18:59.895Z,6.13
2022-11-05T17:21:28.902Z,6.07
2022-11-05T17:23:56.465Z,6.04
2022-11-05T17:26:24.426Z,5.99
2022-11-05T17:28:51.726Z,5.99
2022-11-05T17:31:19.176Z,5.98
2022-11-05T17:33:46.557Z,5.96
2022-11-05T17:36:16.139Z,5.93
2022-11-05T17:38:46.922Z,5.94
2022-11-05T17:41:23.847Z,5.98
2022-11-05T17:43:56.931Z,5.93
2022-11-05T17:46:25.273Z,5.99
2022-11-05T17:48:55.229Z,5.87
2022-11-05T17:51:22.895Z,5.86
2022-11-05T17:53:50.324Z,5.86
2022-11-05T17:56:30.598Z,5.83
2022-11-05T17:59:02.402Z,5.80
2022-11-05T18:01:33.151Z,5.78
2022-11-05T18:04:07.172Z,5.74
2022-11-05T18:06:40.670Z,5.71
2022-11-05T18:09:09.930Z,5.68
2022-11-05T18:11:38.855Z,5.63
2022-11-05T18:14:07.110Z,5.60
2022-11-05T18:16:35.163Z,5.58
2022-11-05T18:19:04.227Z,5.57
2022-11-05T18:21:31.691Z,5.57
2022-11-05T18:24:02.770Z,5.65
2022-11-05T18:26:30.187Z,5.64
2022-11-05T18:29:00.455Z,5.63
2022-11-05T18:31:28.249Z,5.57
2022-11-05T18:33:58.614Z,5.65
2022-11-05T18:36:29.684Z,5.66
2022-11-05T18:39:02.175Z,5.62
2022-11-05T18:41:29.740Z,5.61
2022-11-05T18:44:01.750Z,5.61
2022-11-05T18:46:56.396Z,5.56
2022-11-05T18:49:18.467Z,5.47
2022-11-05T18:51:46.222Z,5.48
2022-11-05T18:54:13.633Z,5.49
2022-11-05T18:56:45.661Z,5.51
2022-11-05T18:59:35.919Z,5.60
2022-11-05T19:02:03.633Z,5.58
2022-11-05T19:04:31.325Z,5.56
2022-11-05T19:07:04.486Z,5.59
2022-11-05T19:09:37.796Z,5.58
2022-11-05T19:12:07.213Z,5.56
2022-11-05T19:14:35.890Z,5.47
2022-11-05T19:17:03.707Z,5.41
2022-11-05T19:19:31.303Z,5.34
2022-11-05T19:21:59.117Z,5.25
2022-11-05T19:24:27.268Z,5.06
2022-11-05T19:26:55.002Z,5.14
2022-11-05T19:29:22.544Z,5.17
2022-11-05T19:31:50.080Z,5.16
2022-11-05T19:34:17.537Z,5.11
2022-11-05T19:36:45.039Z,5.10
2022-11-05T19:39:14.602Z,5.10
2022-11-05T19:41:42.323Z,5.24
2022-11-05T19:44:09.899Z,5.20
2022-11-05T19:46:37.475Z,5.18
2022-11-05T19:49:04.850Z,5.30
2022-11-05T19:51:33.064Z,5.11
2022-11-05T19:54:03.776Z,5.11
2022-11-05T19:56:33.760Z,5.05
2022-11-05T19:59:03.445Z,4.98
2022-11-05T20:01:31.240Z,4.96
2022-11-05T20:03:59.809Z,4.89
2022-11-05T20:06:33.654Z,4.99
2022-11-05T20:11:54.656Z,4.92
2022-11-05T20:14:23.640Z,4.87
2022-11-05T20:16:51.061Z,4.95
2022-11-05T20:19:20.320Z,4.99
2022-11-05T20:21:48.406Z,4.95
2022-11-05T20:24:23.757Z,5.09
2022-11-05T20:26:54.906Z,4.95
2022-11-05T20:29:23.397Z,4.94
2022-11-05T20:31:54.969Z,4.88
2022-11-05T20:34:25.369Z,4.77
2022-11-05T20:36:52.738Z,4.76
2022-11-05T20:39:21.374Z,4.70
2022-11-05T20:41:48.739Z,4.60
2022-11-05T20:44:16.151Z,4.90
2022-11-05T20:46:43.550Z,4.79
2022-11-05T20:49:11.099Z,4.77
2022-11-05T20:51:41.810Z,4.69
2022-11-05T20:54:09.592Z,4.65
2022-11-05T20:56:38.202Z,4.68
2022-11-05T20:59:05.943Z,4.71
2022-11-05T21:01:34.873Z,4.67
2022-11-05T21:04:03.447Z,4.68
2022-11-05T21:06:31.675Z,4.59
2022-11-05T21:08:59.527Z,4.47
2022-11-05T21:11:26.867Z,4.54
2022-11-05T21:13:54.861Z,4.51
2022-11-05T21:16:22.531Z,4.41
2022-11-05T21:18:50.026Z,4.48
2022-11-05T21:21:20.228Z,4.45
2022-11-05T21:23:48.199Z,4.31
2022-11-05T21:26:16.999Z,4.28
2022-11-05T21:28:44.870Z,4.22
2022-11-05T21:31:12.174Z,4.38
2022-11-05T21:33:39.729Z,4.28
2022-11-05T21:36:10.483Z,4.28
2022-11-05T21:38:38.535Z,4.27
2022-11-05T21:41:07.492Z,4.24
2022-11-05T21:43:35.012Z,4.51
2022-11-05T21:46:04.412Z,4.46
2022-11-05T21:48:32.480Z,4.15
2022-11-05T21:51:18.779Z,4.13
2022-11-05T21:54:05.036Z,4.24
2022-11-05T21:56:51.994Z,4.31
2022-11-05T21:59:43.263Z,4.33
2022-11-05T22:02:13.320Z,4.18
2022-11-05T22:04:47.055Z,4.16
2022-11-05T22:07:17.382Z,4.18
2022-11-05T22:09:45.006Z,4.13
2022-11-05T22:12:12.687Z,4.11
2022-11-05T22:14:40.382Z,4.08
2022-11-05T22:17:08.820Z,4.00
2022-11-05T22:19:36.903Z,4.03
2022-11-05T22:22:05.843Z,3.98
2022-11-05T22:24:34.568Z,4.00
2022-11-05T22:27:04.765Z,3.94
2022-11-05T22:29:32.485Z,3.96
2022-11-05T22:32:00.228Z,3.85
2022-11-05T22:34:28.013Z,3.79
2022-11-05T22:36:55.589Z,3.94
2022-11-05T22:39:23.253Z,3.75
2022-11-05T22:41:54.602Z,3.87
2022-11-05T22:44:23.062Z,3.81
2022-11-05T22:46:50.890Z,3.89
2022-11-05T22:49:18.256Z,3.86
2022-11-05T22:51:45.710Z,3.82
2022-11-05T22:54:13.113Z,3.89
2022-11-05T22:56:42.580Z,3.86
2022-11-05T22:59:14.636Z,3.90
2022-11-05T23:01:44.217Z,3.79
2022-11-05T23:04:13.238Z,3.74
2022-11-05T23:06:59.630Z,3.74
2022-11-05T23:09:57.158Z,3.74
2022-11-05T23:12:26.225Z,3.72
2022-11-05T23:14:55.129Z,3.81
2022-11-05T23:17:41.592Z,3.81
2022-11-05T23:20:32.603Z,3.90
2022-11-05T23:23:18.784Z,3.85
2022-11-05T23:25:46.376Z,3.73
2022-11-05T23:28:14.597Z,3.62
2022-11-05T23:31:04.358Z,3.55
2022-11-05T23:33:34.527Z,3.49
2022-11-05T23:36:21.711Z,3.42
2022-11-05T23:38:49.211Z,3.32
2022-11-05T23:41:48.865Z,3.22
2022-11-05T23:44:45.615Z,3.19
2022-11-05T23:47:31.973Z,3.30
2022-11-05T23:49:59.413Z,3.44
2022-11-05T23:52:26.927Z,3.42
2022-11-05T23:54:54.273Z,3.47
2022-11-05T23:57:21.626Z,3.51
2022-11-05T23:59:49.039Z,3.53
